Aérodrome :
LOGIN :

S'inscrire | Disclaimer

   EN    FR    IT 

 










Légende :    VFR   VFR Marginal   IFR   IFR Intensif   IFR Très Intensif
Visi : 
Plafond : 
>= 8 km
>= 3000ft
5 à 8 km
1000 à 3000 ft
1500m à 5 km
500 à 1000 ft
800 à 1500m
200 à 500 ft
< 800m
< 200 ft
Symboles :   Orages  Brouillard  Fortes neiges  Fortes précipitations  Vent > 20 kt
SIGMETs :   Divers  Orages  Givrage  Turbulence  Onde Orograph.  Cendres Volcan.






- Altitude de l'aérodrome : 197 ft
- Code IATA : XOG


LFMO - Orange

DERNIER METAR :
  • 281300Z AUTO 32010KT CAVOK 14/M03 Q1019 NOSIG

METARs EXPIRÉS :
  • 281230Z AUTO 34010KT 290V010 CAVOK 14/M02 Q1020 NOSIG
  • 281200Z AUTO 33013KT CAVOK 13/M03 Q1020 NOSIG
  • 281130Z AUTO 32012KT 290V350 CAVOK 12/M01 Q1020 NOSIG
  • 281100Z AUTO 35015KT CAVOK 12/M00 Q1020 NOSIG
  • 281030Z AUTO 33011KT 290V360 CAVOK 11/M01 Q1021 NOSIG

TAF TAF LFMO
Valide du 28 à 09h jusqu'au 29 à 09h UTC


280800Z 2809/2909 35015KT CAVOK
BECMG 2814/2816 30005KT
BECMG 2906/2908 14015G25KT RA



MET'MAP, la Météo Aéronautique d'un coup d'oeil ! - Copyright ORBIFLY Décembre 2007 - Disclaimer

ORBIFLY MET'MAP TEAM :

Programmation & Développement : Alexandra Zaïnal
Sur une idée originale de : Baudouin d'Aumeries
Assistance à la programmation : Marc-Olivier Méhu
Soutien technique & logistique : Manuel Goepfert

Contact : metmap@orbifly.com




SOURCES & CREDITS :

   NOAA